KTQH 182335Z AUTO 18009G15KT 10SM CLR 33/21 A2989 RMK AO2